createdAt,value
2023-05-05T00:00:09.094Z,10.57
2023-05-05T00:02:10.766Z,10.32
2023-05-05T00:04:12.226Z,9.95
2023-05-05T00:06:13.650Z,10.73
2023-05-05T00:08:15.302Z,10.65
2023-05-05T00:10:16.788Z,12.18
2023-05-05T00:12:18.194Z,11.68
2023-05-05T00:14:19.591Z,11.57
2023-05-05T00:16:21.043Z,10.80
2023-05-05T00:18:22.600Z,11.35
2023-05-05T00:20:24.074Z,11.43
2023-05-05T00:22:25.722Z,12.38
2023-05-05T00:24:27.131Z,10.25
2023-05-05T00:26:28.617Z,11.00
2023-05-05T00:28:30.103Z,11.13
2023-05-05T00:30:31.767Z,11.13
2023-05-05T00:32:33.318Z,11.38
2023-05-05T00:34:34.767Z,10.73
2023-05-05T00:36:36.213Z,10.88
2023-05-05T00:38:38.143Z,10.35
2023-05-05T00:40:39.641Z,11.43
2023-05-05T00:42:41.699Z,10.60
2023-05-05T00:44:43.199Z,10.60
2023-05-05T00:46:44.861Z,10.27
2023-05-05T00:48:46.505Z,10.68
2023-05-05T00:50:47.911Z,10.30
2023-05-05T00:52:49.910Z,11.13
2023-05-05T00:54:51.506Z,12.05
2023-05-05T00:56:53.473Z,11.65
2023-05-05T00:58:55.242Z,11.50
2023-05-05T01:00:56.649Z,11.73
2023-05-05T01:02:58.178Z,12.00
2023-05-05T01:05:00.276Z,13.43
2023-05-05T01:07:02.111Z,11.38
2023-05-05T01:09:24.056Z,10.55
2023-05-05T01:11:27.166Z,10.10
2023-05-05T01:13:35.302Z,10.45
2023-05-05T01:15:40.578Z,10.18
2023-05-05T01:17:43.548Z,12.27
2023-05-05T01:19:58.402Z,12.48
2023-05-05T01:22:02.012Z,12.20
2023-05-05T01:24:11.037Z,11.60
2023-05-05T01:26:12.475Z,9.48
2023-05-05T01:28:27.690Z,13.00
2023-05-05T01:30:31.877Z,16.85
2023-05-05T01:32:35.358Z,17.55
2023-05-05T01:34:51.177Z,21.95
2023-05-05T01:36:58.382Z,19.08
2023-05-05T01:39:02.087Z,18.17
2023-05-05T01:44:02.914Z,18.85
2023-05-05T01:46:19.945Z,17.45
2023-05-05T01:48:22.897Z,18.55
2023-05-05T01:50:25.678Z,16.42
2023-05-05T01:52:28.105Z,16.98
2023-05-05T01:54:30.397Z,16.95
2023-05-05T01:56:32.428Z,16.35
2023-05-05T01:58:34.576Z,15.65
2023-05-05T02:00:36.066Z,16.20
2023-05-05T02:02:39.380Z,16.50
2023-05-05T02:04:41.772Z,16.98
2023-05-05T02:06:44.521Z,15.93
2023-05-05T02:08:47.209Z,15.70
2023-05-05T02:10:49.801Z,16.60
2023-05-05T02:12:52.094Z,17.15
2023-05-05T02:14:54.171Z,16.27
2023-05-05T02:16:56.453Z,16.88
2023-05-05T02:18:59.461Z,20.40
2023-05-05T02:21:01.095Z,21.70
2023-05-05T02:23:04.704Z,21.02
2023-05-05T02:25:06.741Z,23.40
2023-05-05T02:27:08.573Z,24.88
2023-05-05T02:29:16.518Z,23.17
2023-05-05T02:31:19.826Z,20.73
2023-05-05T02:33:22.019Z,19.70
2023-05-05T02:35:26.226Z,19.63
2023-05-05T02:37:28.833Z,18.35
2023-05-05T02:39:35.649Z,19.00
2023-05-05T02:41:38.286Z,18.48
2023-05-05T02:43:40.961Z,16.90
2023-05-05T02:45:42.354Z,18.15
2023-05-05T02:47:43.861Z,17.33
2023-05-05T02:49:45.260Z,17.67
2023-05-05T02:51:46.735Z,19.10
2023-05-05T02:53:48.298Z,16.60
2023-05-05T02:56:01.802Z,14.27
2023-05-05T02:58:06.645Z,13.95
2023-05-05T03:00:12.204Z,13.02
2023-05-05T03:02:20.611Z,12.65
2023-05-05T03:04:42.626Z,13.23
2023-05-05T03:06:47.414Z,12.52
2023-05-05T03:09:01.115Z,13.30
2023-05-05T03:11:06.751Z,13.15
2023-05-05T03:13:09.283Z,12.30
2023-05-05T03:15:11.127Z,11.23
2023-05-05T03:17:13.007Z,9.57
2023-05-05T03:19:15.615Z,8.90
2023-05-05T03:21:17.268Z,9.52
2023-05-05T03:23:21.032Z,9.45
2023-05-05T03:25:22.719Z,9.43
2023-05-05T03:27:24.126Z,9.63
2023-05-05T03:29:25.552Z,9.77
2023-05-05T03:31:28.499Z,10.25
2023-05-05T03:33:30.013Z,10.70
2023-05-05T03:35:31.472Z,9.88
2023-05-05T03:37:32.948Z,10.55
2023-05-05T03:39:34.355Z,9.77
2023-05-05T03:41:35.953Z,9.40
2023-05-05T03:43:39.320Z,9.55
2023-05-05T03:45:40.783Z,11.27
2023-05-05T03:47:42.327Z,11.02
2023-05-05T03:49:43.756Z,9.45
2023-05-05T03:51:45.183Z,9.93
2023-05-05T03:53:46.683Z,9.18
2023-05-05T03:55:48.233Z,10.15
2023-05-05T03:57:49.654Z,9.20
2023-05-05T03:59:51.183Z,9.95
2023-05-05T04:01:52.638Z,9.93
2023-05-05T04:03:54.139Z,8.60
2023-05-05T04:05:55.952Z,9.50
2023-05-05T04:07:58.409Z,9.55
2023-05-05T04:10:00.171Z,9.05
2023-05-05T04:12:03.098Z,8.80
2023-05-05T04:14:04.531Z,9.32
2023-05-05T04:16:06.120Z,10.23
2023-05-05T04:18:07.718Z,11.05
2023-05-05T04:20:09.685Z,9.50
2023-05-05T04:22:11.449Z,9.38
2023-05-05T04:24:12.850Z,9.45
2023-05-05T04:26:14.290Z,9.15
2023-05-05T04:28:15.933Z,9.63
2023-05-05T04:30:17.327Z,11.88
2023-05-05T04:32:18.804Z,11.32
2023-05-05T04:34:20.223Z,12.27
2023-05-05T04:36:21.646Z,11.52
2023-05-05T04:38:23.102Z,10.93
2023-05-05T04:40:26.296Z,9.80
2023-05-05T04:42:27.786Z,9.40
2023-05-05T04:44:29.169Z,8.88
2023-05-05T04:46:30.957Z,9.82
2023-05-05T04:48:32.555Z,9.13
2023-05-05T04:50:33.966Z,9.60
2023-05-05T04:52:35.389Z,9.98
2023-05-05T04:54:37.490Z,17.70
2023-05-05T04:56:38.917Z,11.75
2023-05-05T04:58:40.343Z,11.75
2023-05-05T05:00:41.824Z,10.02
2023-05-05T05:02:43.305Z,8.88
2023-05-05T05:04:44.785Z,9.93
2023-05-05T05:06:46.289Z,8.73
2023-05-05T05:08:47.694Z,8.93
2023-05-05T05:10:49.116Z,9.40
2023-05-05T05:12:50.705Z,9.30
2023-05-05T05:14:52.203Z,10.40
2023-05-05T05:16:53.764Z,13.43
2023-05-05T05:18:55.192Z,10.88
2023-05-05T05:20:56.657Z,10.32
2023-05-05T05:22:58.124Z,9.80
2023-05-05T05:24:59.522Z,9.88
2023-05-05T05:27:01.374Z,11.90
2023-05-05T05:29:02.791Z,11.23
2023-05-05T05:31:04.857Z,10.95
2023-05-05T05:33:06.806Z,11.68
2023-05-05T05:35:08.396Z,10.38
2023-05-05T05:37:09.785Z,13.07
2023-05-05T05:39:11.181Z,11.13
2023-05-05T05:41:12.637Z,9.73
2023-05-05T05:43:14.058Z,9.85
2023-05-05T05:45:15.463Z,10.15
2023-05-05T05:47:16.996Z,9.93
2023-05-05T05:49:18.417Z,9.50
2023-05-05T05:51:19.815Z,8.63
2023-05-05T05:53:21.885Z,9.27
2023-05-05T05:55:23.340Z,7.75
2023-05-05T05:57:24.857Z,10.23
2023-05-05T05:59:26.508Z,11.18
2023-05-05T06:01:27.966Z,7.53
2023-05-05T06:03:29.462Z,8.05
2023-05-05T06:05:31.424Z,7.35
2023-05-05T06:07:32.829Z,8.75
2023-05-05T06:09:34.258Z,16.05
2023-05-05T06:11:37.046Z,9.70
2023-05-05T06:13:38.449Z,14.50
2023-05-05T06:15:39.860Z,8.15
2023-05-05T06:17:41.401Z,11.75
2023-05-05T06:19:43.406Z,7.03
2023-05-05T06:21:44.952Z,10.98
2023-05-05T06:23:46.949Z,6.82
2023-05-05T06:25:48.330Z,7.60
2023-05-05T06:27:49.804Z,8.18
2023-05-05T06:29:51.389Z,7.63
2023-05-05T06:31:53.033Z,6.45
2023-05-05T06:33:54.840Z,6.82
2023-05-05T06:35:56.352Z,6.43
2023-05-05T06:37:57.737Z,6.85
2023-05-05T06:39:59.194Z,6.70
2023-05-05T06:42:00.584Z,7.50
2023-05-05T06:44:01.994Z,7.00
2023-05-05T06:46:03.457Z,6.18
2023-05-05T06:48:04.874Z,5.85
2023-05-05T06:50:07.176Z,4.95
2023-05-05T06:52:08.814Z,7.20
2023-05-05T06:54:10.198Z,8.38
2023-05-05T06:56:11.650Z,6.15
2023-05-05T06:58:13.235Z,6.03
2023-05-05T07:00:15.221Z,6.03
2023-05-05T07:02:16.656Z,5.50
2023-05-05T07:04:18.077Z,6.63
2023-05-05T07:06:19.542Z,5.38
2023-05-05T07:08:20.983Z,6.28
2023-05-05T07:10:23.098Z,5.68
2023-05-05T07:12:24.557Z,5.45
2023-05-05T07:14:26.209Z,5.00
2023-05-05T07:16:27.655Z,4.70
2023-05-05T07:18:29.118Z,4.10
2023-05-05T07:20:30.548Z,4.10
2023-05-05T07:22:31.963Z,3.95
2023-05-05T07:24:33.391Z,3.47
2023-05-05T07:26:34.858Z,3.35
2023-05-05T07:28:36.346Z,3.92
2023-05-05T07:30:37.758Z,3.63
2023-05-05T07:32:39.336Z,3.58
2023-05-05T07:34:40.973Z,3.40
2023-05-05T07:36:42.401Z,3.40
2023-05-05T07:38:43.937Z,3.53
2023-05-05T07:40:45.429Z,3.00
2023-05-05T07:42:47.533Z,3.22
2023-05-05T07:44:48.950Z,3.45
2023-05-05T07:46:50.380Z,3.08
2023-05-05T07:48:51.817Z,3.20
2023-05-05T07:50:53.234Z,2.80
2023-05-05T07:53:02.350Z,2.80
2023-05-05T07:55:07.527Z,2.65
2023-05-05T07:57:08.926Z,2.78
2023-05-05T07:59:11.231Z,3.03
2023-05-05T08:01:13.216Z,3.40
2023-05-05T08:03:14.708Z,3.20
2023-05-05T08:05:16.816Z,3.00
2023-05-05T08:07:18.289Z,2.40
2023-05-05T08:09:19.831Z,3.08
2023-05-05T08:11:21.907Z,3.47
2023-05-05T08:13:23.325Z,3.25
2023-05-05T08:15:24.810Z,2.67
2023-05-05T08:17:27.135Z,2.50
2023-05-05T08:19:29.595Z,3.00
2023-05-05T08:21:31.795Z,2.53
2023-05-05T08:23:33.686Z,2.72
2023-05-05T08:25:35.104Z,2.60
2023-05-05T08:27:37.862Z,2.35
2023-05-05T08:29:39.405Z,2.47
2023-05-05T08:31:40.914Z,2.47
2023-05-05T08:33:42.610Z,2.15
2023-05-05T08:35:44.157Z,2.60
2023-05-05T08:37:45.582Z,2.47
2023-05-05T08:39:47.028Z,2.53
2023-05-05T08:41:48.592Z,1.98
2023-05-05T08:43:50.595Z,2.22
2023-05-05T08:45:52.289Z,2.47
2023-05-05T08:47:55.323Z,2.50
2023-05-05T08:49:58.779Z,2.38
2023-05-05T08:52:01.429Z,2.13
2023-05-05T08:54:03.915Z,2.05
2023-05-05T08:56:05.530Z,2.45
2023-05-05T08:58:07.421Z,2.38
2023-05-05T09:00:10.938Z,2.28
2023-05-05T09:02:13.104Z,2.58
2023-05-05T09:04:14.616Z,2.00
2023-05-05T09:06:16.236Z,2.05
2023-05-05T09:08:17.814Z,2.05
2023-05-05T09:10:19.295Z,2.20
2023-05-05T09:12:21.694Z,2.05
2023-05-05T09:14:23.146Z,2.30
2023-05-05T09:16:24.662Z,2.10
2023-05-05T09:18:26.284Z,2.65
2023-05-05T09:20:37.670Z,2.05
2023-05-05T09:22:40.134Z,2.10
2023-05-05T09:24:54.542Z,2.33
2023-05-05T09:26:58.551Z,2.35
2023-05-05T09:29:01.257Z,1.98
2023-05-05T09:31:12.711Z,2.30
2023-05-05T09:33:14.410Z,2.47
2023-05-05T09:35:16.577Z,2.50
2023-05-05T09:37:27.088Z,2.28
2023-05-05T09:39:28.586Z,2.53
2023-05-05T09:41:36.640Z,2.10
2023-05-05T09:43:51.764Z,2.05
2023-05-05T09:46:04.995Z,2.40
2023-05-05T09:48:06.694Z,2.05
2023-05-05T09:50:10.896Z,1.90
2023-05-05T09:52:15.891Z,2.42
2023-05-05T09:54:27.531Z,2.13
2023-05-05T09:56:39.697Z,2.50
2023-05-05T09:58:41.948Z,2.30
2023-05-05T10:00:43.672Z,2.33
2023-05-05T10:02:45.526Z,2.10
2023-05-05T10:04:47.034Z,3.80
2023-05-05T10:06:48.657Z,2.33
2023-05-05T10:09:00.656Z,2.15
2023-05-05T10:11:06.941Z,2.33
2023-05-05T10:13:09.747Z,2.17
2023-05-05T10:15:12.041Z,2.30
2023-05-05T10:17:14.898Z,2.10
2023-05-05T10:19:20.209Z,2.72
2023-05-05T10:21:21.792Z,2.30
2023-05-05T10:23:24.433Z,2.17
2023-05-05T10:25:35.353Z,2.47
2023-05-05T10:27:44.740Z,2.20
2023-05-05T10:30:06.314Z,2.40
2023-05-05T10:32:55.632Z,2.50
2023-05-05T10:34:56.907Z,2.30
2023-05-05T10:37:00.270Z,2.08
2023-05-05T10:39:03.052Z,2.47
2023-05-05T10:41:04.570Z,2.67
2023-05-05T10:43:07.579Z,2.50
2023-05-05T10:45:09.722Z,2.55
2023-05-05T10:47:11.916Z,2.45
2023-05-05T10:49:33.319Z,2.30
2023-05-05T10:51:40.313Z,2.20
2023-05-05T10:53:49.286Z,2.25
2023-05-05T10:55:53.488Z,2.75
2023-05-05T10:57:54.935Z,2.10
2023-05-05T10:59:56.394Z,2.22
2023-05-05T11:01:57.834Z,2.00
2023-05-05T11:04:18.312Z,3.30
2023-05-05T11:06:19.863Z,2.20
2023-05-05T11:08:25.684Z,2.40
2023-05-05T11:10:43.452Z,2.03
2023-05-05T11:12:54.282Z,2.25
2023-05-05T11:15:14.385Z,2.78
2023-05-05T11:17:45.781Z,2.03
2023-05-05T11:19:48.406Z,2.60
2023-05-05T11:22:00.035Z,2.20
2023-05-05T11:24:17.949Z,2.20
2023-05-05T11:26:39.300Z,1.85
2023-05-05T11:28:56.386Z,2.10
2023-05-05T11:31:00.829Z,2.00
2023-05-05T11:33:20.851Z,1.80
2023-05-05T11:35:22.275Z,2.45
2023-05-05T11:37:24.503Z,2.40
2023-05-05T11:39:47.252Z,7.57
2023-05-05T11:42:02.942Z,2.03
2023-05-05T11:44:14.127Z,2.00
2023-05-05T11:46:16.881Z,2.40
2023-05-05T11:48:26.048Z,2.50
2023-05-05T11:50:27.678Z,1.90
2023-05-05T11:52:29.230Z,1.80
2023-05-05T11:54:31.081Z,2.17
2023-05-05T11:56:32.539Z,2.08
2023-05-05T11:58:33.958Z,2.00
2023-05-05T12:00:36.563Z,2.40
2023-05-05T12:02:38.115Z,2.15
2023-05-05T12:04:39.968Z,2.15
2023-05-05T12:06:42.316Z,2.08
2023-05-05T12:08:43.792Z,2.33
2023-05-05T12:10:45.202Z,2.30
2023-05-05T12:12:47.212Z,2.38
2023-05-05T12:14:50.306Z,2.45
2023-05-05T12:17:07.149Z,2.60
2023-05-05T12:19:08.724Z,1.95
2023-05-05T12:21:16.742Z,1.98
2023-05-05T12:23:18.152Z,1.90
2023-05-05T12:25:19.584Z,1.95
2023-05-05T12:27:21.131Z,2.00
2023-05-05T12:29:26.271Z,2.10
2023-05-05T12:31:37.680Z,2.17
2023-05-05T12:33:39.869Z,1.90
2023-05-05T12:35:41.766Z,1.70
2023-05-05T12:37:43.599Z,1.75
2023-05-05T12:39:45.401Z,2.05
2023-05-05T12:41:46.956Z,2.00
2023-05-05T12:43:54.276Z,2.20
2023-05-05T12:46:22.323Z,1.80
2023-05-05T12:48:23.930Z,2.38
2023-05-05T12:50:31.855Z,2.13
2023-05-05T12:52:45.785Z,1.92
2023-05-05T12:54:54.865Z,2.17
2023-05-05T12:56:59.679Z,1.85
2023-05-05T12:59:01.827Z,2.67
2023-05-05T13:01:10.621Z,2.22
2023-05-05T13:03:19.411Z,2.50
2023-05-05T13:05:31.602Z,2.20
2023-05-05T13:07:33.001Z,2.70
2023-05-05T13:09:34.784Z,2.08
2023-05-05T13:11:37.298Z,2.08
2023-05-05T13:13:38.767Z,2.05
2023-05-05T13:15:40.275Z,2.35
2023-05-05T13:17:41.850Z,3.22
2023-05-05T13:19:46.741Z,4.50
2023-05-05T13:21:48.634Z,1.90
2023-05-05T13:23:50.280Z,3.60
2023-05-05T13:25:51.726Z,2.80
2023-05-05T13:27:53.206Z,1.92
2023-05-05T13:29:54.613Z,2.00
2023-05-05T13:31:56.028Z,2.17
2023-05-05T13:33:57.516Z,2.30
2023-05-05T13:35:59.014Z,2.35
2023-05-05T13:38:00.716Z,1.90
2023-05-05T13:40:02.324Z,2.05
2023-05-05T13:42:03.795Z,2.10
2023-05-05T13:44:05.234Z,1.92
2023-05-05T13:46:19.164Z,1.77
2023-05-05T13:48:21.723Z,1.90
2023-05-05T13:50:23.966Z,1.77
2023-05-05T13:52:25.392Z,1.70
2023-05-05T13:54:26.975Z,2.03
2023-05-05T13:56:28.597Z,1.73
2023-05-05T13:58:30.451Z,1.75
2023-05-05T14:00:32.647Z,1.77
2023-05-05T14:02:34.240Z,1.75
2023-05-05T14:04:36.160Z,1.80
2023-05-05T14:06:37.661Z,1.80
2023-05-05T14:08:39.147Z,2.17
2023-05-05T14:10:40.728Z,1.85
2023-05-05T14:12:42.203Z,1.98
2023-05-05T14:14:43.616Z,1.88
2023-05-05T14:16:45.089Z,1.80
2023-05-05T14:18:46.623Z,2.13
2023-05-05T14:20:48.007Z,1.67
2023-05-05T14:22:49.516Z,2.00
2023-05-05T14:24:50.993Z,2.15
2023-05-05T14:26:52.447Z,2.60
2023-05-05T14:28:53.924Z,1.75
2023-05-05T14:30:55.456Z,1.75
2023-05-05T14:32:56.932Z,1.75
2023-05-05T14:34:58.327Z,1.85
2023-05-05T14:36:59.738Z,2.30
2023-05-05T14:39:01.138Z,1.73
2023-05-05T14:41:02.700Z,1.60
2023-05-05T14:43:04.129Z,1.98
2023-05-05T14:45:06.538Z,2.08
2023-05-05T14:47:08.184Z,2.20
2023-05-05T14:49:09.575Z,1.90
2023-05-05T14:51:11.003Z,2.20
2023-05-05T14:53:12.405Z,1.65
2023-05-05T14:55:13.852Z,1.90
2023-05-05T14:57:15.388Z,1.67
2023-05-05T14:59:16.799Z,1.85
2023-05-05T15:01:18.754Z,2.25
2023-05-05T15:03:20.678Z,1.77
2023-05-05T15:05:22.161Z,1.75
2023-05-05T15:07:28.322Z,1.90
2023-05-05T15:09:29.731Z,1.80
2023-05-05T15:11:31.106Z,1.60
2023-05-05T15:13:32.601Z,1.55
2023-05-05T15:15:33.996Z,1.80
2023-05-05T15:17:37.526Z,1.88
2023-05-05T15:19:39.129Z,1.45
2023-05-05T15:21:40.604Z,1.95
2023-05-05T15:23:42.055Z,2.03
2023-05-05T15:25:43.469Z,2.20
2023-05-05T15:27:45.126Z,1.90
2023-05-05T15:29:46.552Z,2.10
2023-05-05T15:31:48.085Z,1.80
2023-05-05T15:33:51.142Z,1.90
2023-05-05T15:35:52.561Z,2.05
2023-05-05T15:37:54.415Z,1.73
2023-05-05T15:39:56.046Z,2.10
2023-05-05T15:41:57.551Z,1.75
2023-05-05T15:43:59.041Z,1.60
2023-05-05T15:46:00.526Z,1.63
2023-05-05T15:48:02.005Z,1.55
2023-05-05T15:50:03.564Z,2.22
2023-05-05T15:52:05.207Z,10.18
2023-05-05T15:54:06.616Z,3.60
2023-05-05T15:56:08.153Z,2.88
2023-05-05T15:58:09.603Z,3.00
2023-05-05T16:00:11.295Z,11.85
2023-05-05T16:02:12.771Z,3.70
2023-05-05T16:04:14.223Z,2.55
2023-05-05T16:06:15.737Z,3.22
2023-05-05T16:08:17.151Z,4.93
2023-05-05T16:10:19.449Z,11.40
2023-05-05T16:12:21.044Z,14.05
2023-05-05T16:14:22.503Z,11.18
2023-05-05T16:16:23.902Z,11.48
2023-05-05T16:18:25.404Z,11.15
2023-05-05T16:20:26.878Z,4.50
2023-05-05T16:22:28.298Z,4.30
2023-05-05T16:24:29.758Z,2.63
2023-05-05T16:26:31.274Z,2.58
2023-05-05T16:28:34.345Z,3.05
2023-05-05T16:30:36.004Z,4.93
2023-05-05T16:32:37.475Z,4.25
2023-05-05T16:34:38.894Z,2.72
2023-05-05T16:36:41.228Z,2.50
2023-05-05T16:38:44.124Z,4.05
2023-05-05T16:40:45.976Z,2.60
2023-05-05T16:42:47.427Z,2.90
2023-05-05T16:44:48.832Z,4.15
2023-05-05T16:46:50.420Z,5.32
2023-05-05T16:48:51.830Z,5.55
2023-05-05T16:50:53.221Z,8.63
2023-05-05T16:52:54.671Z,10.02
2023-05-05T16:54:56.627Z,7.53
2023-05-05T16:56:58.233Z,14.70
2023-05-05T16:58:59.628Z,6.65
2023-05-05T17:01:02.823Z,9.25
2023-05-05T17:03:04.227Z,4.88
2023-05-05T17:05:06.026Z,13.82
2023-05-05T17:07:07.622Z,15.07
2023-05-05T17:09:09.081Z,14.77
2023-05-05T17:11:11.758Z,27.73
2023-05-05T17:13:14.297Z,22.80
2023-05-05T17:15:16.112Z,14.48
2023-05-05T17:17:17.548Z,14.82
2023-05-05T17:19:18.954Z,9.93
2023-05-05T17:21:20.395Z,8.50
2023-05-05T17:23:21.852Z,5.75
2023-05-05T17:25:23.468Z,7.30
2023-05-05T17:27:24.985Z,7.20
2023-05-05T17:29:26.595Z,5.82
2023-05-05T17:31:28.096Z,4.43
2023-05-05T17:33:29.563Z,6.10
2023-05-05T17:35:31.019Z,12.23
2023-05-05T17:37:33.725Z,13.13
2023-05-05T17:39:35.142Z,8.98
2023-05-05T17:41:36.591Z,6.30
2023-05-05T17:43:38.016Z,10.32
2023-05-05T17:45:39.449Z,12.15
2023-05-05T17:47:40.961Z,13.57
2023-05-05T17:49:42.485Z,13.32
2023-05-05T17:51:43.897Z,10.10
2023-05-05T17:53:45.402Z,8.65
2023-05-05T17:55:47.070Z,9.23
2023-05-05T17:57:48.491Z,8.98
2023-05-05T17:59:50.433Z,8.18
2023-05-05T18:01:51.887Z,7.13
2023-05-05T18:03:53.447Z,9.10
2023-05-05T18:05:54.920Z,6.97
2023-05-05T18:07:56.320Z,5.15
2023-05-05T18:09:57.772Z,6.20
2023-05-05T18:11:59.158Z,7.10
2023-05-05T18:14:00.616Z,5.32
2023-05-05T18:16:02.096Z,5.78
2023-05-05T18:18:03.533Z,5.85
2023-05-05T18:20:07.079Z,5.57
2023-05-05T18:22:08.502Z,6.20
2023-05-05T18:24:19.227Z,7.60
2023-05-05T18:26:21.631Z,8.95
2023-05-05T18:28:23.290Z,6.93
2023-05-05T18:30:24.750Z,8.75
2023-05-05T18:32:26.259Z,6.82
2023-05-05T18:34:29.462Z,6.40
2023-05-05T18:36:31.553Z,7.13
2023-05-05T18:38:32.975Z,7.57
2023-05-05T18:40:34.416Z,6.53
2023-05-05T18:42:36.142Z,6.88
2023-05-05T18:44:37.561Z,9.82
2023-05-05T18:46:39.228Z,17.08
2023-05-05T18:48:40.848Z,19.08
2023-05-05T18:50:42.360Z,20.80
2023-05-05T18:52:43.742Z,25.52
2023-05-05T18:54:45.198Z,13.43
2023-05-05T18:56:46.598Z,12.48
2023-05-05T18:58:48.036Z,21.75
2023-05-05T19:00:49.517Z,16.67
2023-05-05T19:02:51.338Z,13.45
2023-05-05T19:04:52.969Z,12.77
2023-05-05T19:06:54.386Z,9.65
2023-05-05T19:08:56.852Z,7.75
2023-05-05T19:10:58.365Z,7.53
2023-05-05T19:12:59.825Z,6.72
2023-05-05T19:15:01.487Z,5.25
2023-05-05T19:17:03.028Z,7.25
2023-05-05T19:19:04.661Z,4.47
2023-05-05T19:21:06.204Z,4.25
2023-05-05T19:23:07.787Z,4.65
2023-05-05T19:25:09.682Z,5.10
2023-05-05T19:27:15.508Z,4.78
2023-05-05T19:29:18.045Z,5.05
2023-05-05T19:31:19.889Z,5.70
2023-05-05T19:33:21.435Z,5.55
2023-05-05T19:35:22.926Z,4.88
2023-05-05T19:37:24.389Z,5.68
2023-05-05T19:39:25.802Z,5.30
2023-05-05T19:41:27.701Z,5.50
2023-05-05T19:43:29.105Z,5.30
2023-05-05T19:45:31.605Z,5.68
2023-05-05T19:47:33.267Z,5.38
2023-05-05T19:49:34.740Z,5.30
2023-05-05T19:51:36.170Z,4.72
2023-05-05T19:53:37.626Z,4.88
2023-05-05T19:55:39.077Z,5.70
2023-05-05T19:57:40.627Z,4.60
2023-05-05T19:59:42.111Z,4.40
2023-05-05T20:01:43.616Z,4.95
2023-05-05T20:03:45.174Z,4.90
2023-05-05T20:05:46.778Z,4.53
2023-05-05T20:07:48.166Z,4.53
2023-05-05T20:09:49.876Z,4.47
2023-05-05T20:11:51.440Z,4.78
2023-05-05T20:13:53.455Z,5.32
2023-05-05T20:15:54.991Z,5.95
2023-05-05T20:17:56.594Z,5.15
2023-05-05T20:19:58.070Z,5.38
2023-05-05T20:21:59.545Z,5.30
2023-05-05T20:24:01.139Z,5.68
2023-05-05T20:26:02.606Z,8.52
2023-05-05T20:28:04.188Z,8.20
2023-05-05T20:30:06.457Z,13.55
2023-05-05T20:32:08.062Z,11.00
2023-05-05T20:34:09.520Z,13.52
2023-05-05T20:36:11.368Z,14.85
2023-05-05T20:38:12.779Z,11.65
2023-05-05T20:40:14.257Z,15.88
2023-05-05T20:42:15.699Z,14.48
2023-05-05T20:44:17.296Z,15.55
2023-05-05T20:46:18.738Z,14.38
2023-05-05T20:48:20.380Z,9.25
2023-05-05T20:50:21.771Z,6.93
2023-05-05T20:52:23.172Z,6.80
2023-05-05T20:54:24.580Z,5.85
2023-05-05T20:56:25.976Z,6.45
2023-05-05T20:58:27.494Z,7.03
2023-05-05T21:00:29.075Z,6.00
2023-05-05T21:02:31.783Z,6.18
2023-05-05T21:04:33.406Z,5.22
2023-05-05T21:06:34.830Z,4.90
2023-05-05T21:08:36.303Z,6.00
2023-05-05T21:10:38.434Z,5.78
2023-05-05T21:12:40.011Z,5.63
2023-05-05T21:14:45.343Z,6.10
2023-05-05T21:16:46.858Z,6.82
2023-05-05T21:18:48.249Z,4.90
2023-05-05T21:20:49.675Z,4.60
2023-05-05T21:22:51.118Z,5.40
2023-05-05T21:24:52.645Z,5.57
2023-05-05T21:26:54.683Z,5.32
2023-05-05T21:28:56.328Z,4.95
2023-05-05T21:31:19.770Z,4.95
2023-05-05T21:33:19.209Z,5.13
2023-05-05T21:35:21.123Z,5.28
2023-05-05T21:37:22.648Z,4.93
2023-05-05T21:39:24.080Z,5.70
2023-05-05T21:41:25.712Z,4.93
2023-05-05T21:43:30.303Z,4.82
2023-05-05T21:45:31.711Z,5.53
2023-05-05T21:47:33.108Z,4.82
2023-05-05T21:49:34.604Z,4.90
2023-05-05T21:51:37.276Z,5.53
2023-05-05T21:53:39.910Z,5.55
2023-05-05T21:55:41.316Z,5.63
2023-05-05T21:57:43.086Z,6.57
2023-05-05T21:59:44.503Z,5.50
2023-05-05T22:01:45.941Z,6.20
2023-05-05T22:03:47.867Z,5.28
2023-05-05T22:05:49.372Z,5.10
2023-05-05T22:07:50.756Z,5.10
2023-05-05T22:09:52.739Z,5.03
2023-05-05T22:11:54.189Z,5.32
2023-05-05T22:13:56.395Z,5.25
2023-05-05T22:15:57.873Z,5.97
2023-05-05T22:17:59.324Z,5.38
2023-05-05T22:20:00.757Z,6.03
2023-05-05T22:22:02.829Z,5.32
2023-05-05T22:24:04.619Z,5.20
2023-05-05T22:26:06.191Z,4.70
2023-05-05T22:28:07.601Z,5.20
2023-05-05T22:30:09.257Z,5.90
2023-05-05T22:32:11.387Z,4.88
2023-05-05T22:34:12.793Z,4.40
2023-05-05T22:36:14.320Z,5.00
2023-05-05T22:38:15.738Z,4.65
2023-05-05T22:40:17.179Z,4.25
2023-05-05T22:42:18.604Z,4.47
2023-05-05T22:44:20.024Z,5.50
2023-05-05T22:46:21.493Z,4.80
2023-05-05T22:48:22.986Z,4.43
2023-05-05T22:50:24.484Z,5.05
2023-05-05T22:52:28.369Z,4.97
2023-05-05T22:54:29.804Z,5.15
2023-05-05T22:56:31.232Z,4.80
2023-05-05T22:58:32.637Z,5.25
2023-05-05T23:00:34.061Z,5.20
2023-05-05T23:02:35.534Z,4.22
2023-05-05T23:04:37.010Z,5.60
2023-05-05T23:06:40.235Z,6.47
2023-05-05T23:08:41.975Z,4.70
2023-05-05T23:10:43.493Z,4.85
2023-05-05T23:12:44.894Z,4.68
2023-05-05T23:14:46.429Z,4.55
2023-05-05T23:16:47.993Z,4.57
2023-05-05T23:18:49.475Z,4.68
2023-05-05T23:20:50.906Z,4.40
2023-05-05T23:22:52.290Z,4.70
2023-05-05T23:24:53.654Z,3.95
2023-05-05T23:26:56.709Z,4.80
2023-05-05T23:28:58.077Z,3.85
2023-05-05T23:30:59.555Z,4.22
2023-05-05T23:33:01.272Z,4.35
2023-05-05T23:35:02.950Z,4.82
2023-05-05T23:37:06.183Z,4.90
2023-05-05T23:39:07.876Z,4.90
2023-05-05T23:41:09.276Z,5.10
2023-05-05T23:43:12.021Z,6.05
2023-05-05T23:45:13.612Z,5.60
2023-05-05T23:47:15.018Z,4.60
2023-05-05T23:49:16.417Z,4.43
2023-05-05T23:51:17.836Z,4.07
2023-05-05T23:53:19.502Z,5.15
2023-05-05T23:55:21.127Z,4.40
2023-05-05T23:57:22.517Z,4.60
2023-05-05T23:59:23.920Z,4.28
